sensor_id;sensor_type;location;lat;lon;timestamp;P1;durP1;ratioP1;P2;durP2;ratioP2
63346;SDS011;49472;49.880;8.650;2022-07-21T00:02:17;26.83;;;24.27;;
63346;SDS011;49472;49.880;8.650;2022-07-21T00:04:43;34.83;;;24.63;;
63346;SDS011;49472;49.880;8.650;2022-07-21T00:07:08;28.48;;;25.67;;
63346;SDS011;49472;49.880;8.650;2022-07-21T00:09:34;29.02;;;26.00;;
63346;SDS011;49472;49.880;8.650;2022-07-21T00:12:00;27.95;;;25.10;;
63346;SDS011;49472;49.880;8.650;2022-07-21T00:14:27;29.20;;;26.30;;
63346;SDS011;49472;49.880;8.650;2022-07-21T00:16:52;29.08;;;26.33;;
63346;SDS011;49472;49.880;8.650;2022-07-21T00:19:18;30.38;;;27.02;;
63346;SDS011;49472;49.880;8.650;2022-07-21T00:21:43;27.92;;;25.05;;
63346;SDS011;49472;49.880;8.650;2022-07-21T00:24:08;29.80;;;25.00;;
63346;SDS011;49472;49.880;8.650;2022-07-21T00:26:34;32.47;;;27.63;;
63346;SDS011;49472;49.880;8.650;2022-07-21T00:28:59;28.92;;;25.83;;
63346;SDS011;49472;49.880;8.650;2022-07-21T00:31:25;29.98;;;25.20;;
63346;SDS011;49472;49.880;8.650;2022-07-21T00:33:50;27.60;;;24.63;;
63346;SDS011;49472;49.880;8.650;2022-07-21T00:36:16;28.55;;;24.77;;
63346;SDS011;49472;49.880;8.650;2022-07-21T00:38:43;30.77;;;25.45;;
63346;SDS011;49472;49.880;8.650;2022-07-21T00:41:08;27.10;;;24.55;;
63346;SDS011;49472;49.880;8.650;2022-07-21T00:43:33;27.90;;;24.52;;
63346;SDS011;49472;49.880;8.650;2022-07-21T00:45:59;29.48;;;25.35;;
63346;SDS011;49472;49.880;8.650;2022-07-21T00:48:24;27.63;;;24.33;;
63346;SDS011;49472;49.880;8.650;2022-07-21T00:50:50;28.75;;;26.05;;
63346;SDS011;49472;49.880;8.650;2022-07-21T00:53:16;29.13;;;26.10;;
63346;SDS011;49472;49.880;8.650;2022-07-21T00:55:42;30.38;;;25.55;;
63346;SDS011;49472;49.880;8.650;2022-07-21T00:58:08;28.65;;;25.85;;
63346;SDS011;49472;49.880;8.650;2022-07-21T01:00:34;29.80;;;26.45;;
63346;SDS011;49472;49.880;8.650;2022-07-21T01:02:59;26.88;;;24.25;;
63346;SDS011;49472;49.880;8.650;2022-07-21T01:05:25;33.83;;;25.77;;
63346;SDS011;49472;49.880;8.650;2022-07-21T01:07:51;30.03;;;26.93;;
63346;SDS011;49472;49.880;8.650;2022-07-21T01:10:19;30.85;;;25.95;;
63346;SDS011;49472;49.880;8.650;2022-07-21T01:12:46;29.13;;;26.25;;
63346;SDS011;49472;49.880;8.650;2022-07-21T01:15:12;29.42;;;26.27;;
63346;SDS011;49472;49.880;8.650;2022-07-21T01:17:39;29.23;;;26.23;;
63346;SDS011;49472;49.880;8.650;2022-07-21T01:20:06;28.88;;;26.13;;
63346;SDS011;49472;49.880;8.650;2022-07-21T01:22:35;29.60;;;26.60;;
63346;SDS011;49472;49.880;8.650;2022-07-21T01:25:02;29.63;;;26.83;;
63346;SDS011;49472;49.880;8.650;2022-07-21T01:27:28;32.03;;;28.90;;
63346;SDS011;49472;49.880;8.650;2022-07-21T01:29:54;39.20;;;30.15;;
63346;SDS011;49472;49.880;8.650;2022-07-21T01:32:20;33.00;;;29.67;;
63346;SDS011;49472;49.880;8.650;2022-07-21T01:34:46;31.47;;;28.20;;
63346;SDS011;49472;49.880;8.650;2022-07-21T01:37:11;36.03;;;32.20;;
63346;SDS011;49472;49.880;8.650;2022-07-21T01:39:36;34.28;;;30.92;;
63346;SDS011;49472;49.880;8.650;2022-07-21T01:42:21;40.92;;;33.13;;
63346;SDS011;49472;49.880;8.650;2022-07-21T01:44:47;37.30;;;33.40;;
63346;SDS011;49472;49.880;8.650;2022-07-21T01:47:13;40.40;;;34.77;;
63346;SDS011;49472;49.880;8.650;2022-07-21T01:49:39;39.25;;;33.42;;
63346;SDS011;49472;49.880;8.650;2022-07-21T01:52:05;38.97;;;34.87;;
63346;SDS011;49472;49.880;8.650;2022-07-21T01:54:30;39.60;;;35.35;;
63346;SDS011;49472;49.880;8.650;2022-07-21T01:56:56;38.17;;;34.00;;
63346;SDS011;49472;49.880;8.650;2022-07-21T01:59:22;42.37;;;36.47;;
63346;SDS011;49472;49.880;8.650;2022-07-21T02:01:47;44.67;;;36.87;;
63346;SDS011;49472;49.880;8.650;2022-07-21T02:04:13;44.30;;;36.53;;
63346;SDS011;49472;49.880;8.650;2022-07-21T02:06:38;44.43;;;36.53;;
63346;SDS011;49472;49.880;8.650;2022-07-21T02:09:04;40.20;;;34.93;;
63346;SDS011;49472;49.880;8.650;2022-07-21T02:11:29;41.25;;;35.95;;
63346;SDS011;49472;49.880;8.650;2022-07-21T02:13:55;39.20;;;34.95;;
63346;SDS011;49472;49.880;8.650;2022-07-21T02:16:20;41.70;;;35.10;;
63346;SDS011;49472;49.880;8.650;2022-07-21T02:18:46;38.77;;;34.60;;
63346;SDS011;49472;49.880;8.650;2022-07-21T02:21:11;48.50;;;35.78;;
63346;SDS011;49472;49.880;8.650;2022-07-21T02:23:37;39.05;;;34.97;;
63346;SDS011;49472;49.880;8.650;2022-07-21T02:26:02;38.40;;;34.27;;
63346;SDS011;49472;49.880;8.650;2022-07-21T02:28:28;36.87;;;32.80;;
63346;SDS011;49472;49.880;8.650;2022-07-21T02:30:54;37.10;;;33.20;;
63346;SDS011;49472;49.880;8.650;2022-07-21T02:33:19;39.00;;;31.97;;
63346;SDS011;49472;49.880;8.650;2022-07-21T02:35:45;47.33;;;36.00;;
63346;SDS011;49472;49.880;8.650;2022-07-21T02:38:11;36.97;;;32.97;;
63346;SDS011;49472;49.880;8.650;2022-07-21T02:40:37;45.73;;;33.57;;
63346;SDS011;49472;49.880;8.650;2022-07-21T02:43:03;36.13;;;32.20;;
63346;SDS011;49472;49.880;8.650;2022-07-21T02:45:30;46.33;;;35.37;;
63346;SDS011;49472;49.880;8.650;2022-07-21T02:48:00;38.70;;;34.53;;
63346;SDS011;49472;49.880;8.650;2022-07-21T02:50:28;41.53;;;33.90;;
63346;SDS011;49472;49.880;8.650;2022-07-21T02:52:56;36.70;;;32.77;;
63346;SDS011;49472;49.880;8.650;2022-07-21T02:55:25;39.40;;;35.17;;
63346;SDS011;49472;49.880;8.650;2022-07-21T03:00:33;36.43;;;32.83;;
63346;SDS011;49472;49.880;8.650;2022-07-21T03:03:00;36.13;;;30.57;;
63346;SDS011;49472;49.880;8.650;2022-07-21T03:05:25;33.65;;;29.58;;
63346;SDS011;49472;49.880;8.650;2022-07-21T03:07:51;32.38;;;29.35;;
63346;SDS011;49472;49.880;8.650;2022-07-21T03:10:16;34.20;;;28.40;;
63346;SDS011;49472;49.880;8.650;2022-07-21T03:12:42;30.38;;;27.27;;
63346;SDS011;49472;49.880;8.650;2022-07-21T03:15:09;28.50;;;25.57;;
63346;SDS011;49472;49.880;8.650;2022-07-21T03:17:34;26.90;;;24.13;;
63346;SDS011;49472;49.880;8.650;2022-07-21T03:20:00;25.65;;;23.08;;
63346;SDS011;49472;49.880;8.650;2022-07-21T03:22:25;27.80;;;25.00;;
63346;SDS011;49472;49.880;8.650;2022-07-21T03:24:50;26.70;;;23.90;;
63346;SDS011;49472;49.880;8.650;2022-07-21T03:27:16;26.70;;;22.73;;
63346;SDS011;49472;49.880;8.650;2022-07-21T03:29:42;22.67;;;20.53;;
63346;SDS011;49472;49.880;8.650;2022-07-21T03:32:08;23.13;;;20.80;;
63346;SDS011;49472;49.880;8.650;2022-07-21T03:34:33;22.85;;;20.70;;
63346;SDS011;49472;49.880;8.650;2022-07-21T03:36:58;22.63;;;20.48;;
63346;SDS011;49472;49.880;8.650;2022-07-21T03:39:24;22.67;;;20.20;;
63346;SDS011;49472;49.880;8.650;2022-07-21T03:41:49;21.10;;;19.15;;
63346;SDS011;49472;49.880;8.650;2022-07-21T03:44:14;22.50;;;20.47;;
63346;SDS011;49472;49.880;8.650;2022-07-21T03:46:40;22.67;;;20.30;;
63346;SDS011;49472;49.880;8.650;2022-07-21T03:49:05;20.17;;;18.07;;
63346;SDS011;49472;49.880;8.650;2022-07-21T03:51:30;21.30;;;19.40;;
63346;SDS011;49472;49.880;8.650;2022-07-21T03:53:56;20.63;;;18.60;;
63346;SDS011;49472;49.880;8.650;2022-07-21T03:56:23;21.23;;;19.17;;
63346;SDS011;49472;49.880;8.650;2022-07-21T03:58:48;20.03;;;18.43;;
63346;SDS011;49472;49.880;8.650;2022-07-21T04:01:14;19.85;;;18.10;;
63346;SDS011;49472;49.880;8.650;2022-07-21T04:03:39;20.50;;;18.70;;
63346;SDS011;49472;49.880;8.650;2022-07-21T04:06:04;21.50;;;19.40;;
63346;SDS011;49472;49.880;8.650;2022-07-21T04:08:35;20.00;;;18.38;;
63346;SDS011;49472;49.880;8.650;2022-07-21T04:11:00;22.80;;;20.27;;
63346;SDS011;49472;49.880;8.650;2022-07-21T04:13:26;22.10;;;19.95;;
63346;SDS011;49472;49.880;8.650;2022-07-21T04:15:52;22.35;;;20.25;;
63346;SDS011;49472;49.880;8.650;2022-07-21T04:18:17;21.58;;;19.40;;
63346;SDS011;49472;49.880;8.650;2022-07-21T04:20:43;23.48;;;19.70;;
63346;SDS011;49472;49.880;8.650;2022-07-21T04:23:08;22.52;;;20.38;;
63346;SDS011;49472;49.880;8.650;2022-07-21T04:25:34;22.38;;;20.23;;
63346;SDS011;49472;49.880;8.650;2022-07-21T04:28:00;20.90;;;18.93;;
63346;SDS011;49472;49.880;8.650;2022-07-21T04:30:26;21.40;;;19.33;;
63346;SDS011;49472;49.880;8.650;2022-07-21T04:32:52;19.73;;;17.92;;
63346;SDS011;49472;49.880;8.650;2022-07-21T04:35:17;19.00;;;17.40;;
63346;SDS011;49472;49.880;8.650;2022-07-21T04:37:43;19.98;;;18.17;;
63346;SDS011;49472;49.880;8.650;2022-07-21T04:40:09;18.85;;;17.35;;
63346;SDS011;49472;49.880;8.650;2022-07-21T04:42:36;19.00;;;17.33;;
63346;SDS011;49472;49.880;8.650;2022-07-21T04:45:02;18.67;;;17.23;;
63346;SDS011;49472;49.880;8.650;2022-07-21T04:47:29;21.45;;;18.88;;
63346;SDS011;49472;49.880;8.650;2022-07-21T04:49:54;21.45;;;17.92;;
63346;SDS011;49472;49.880;8.650;2022-07-21T04:52:19;18.25;;;16.83;;
63346;SDS011;49472;49.880;8.650;2022-07-21T04:54:45;17.25;;;15.60;;
63346;SDS011;49472;49.880;8.650;2022-07-21T04:57:11;19.63;;;17.92;;
63346;SDS011;49472;49.880;8.650;2022-07-21T04:59:36;20.60;;;18.87;;
63346;SDS011;49472;49.880;8.650;2022-07-21T05:02:02;20.63;;;18.40;;
63346;SDS011;49472;49.880;8.650;2022-07-21T05:04:28;19.45;;;16.65;;
63346;SDS011;49472;49.880;8.650;2022-07-21T05:06:53;19.23;;;17.33;;
63346;SDS011;49472;49.880;8.650;2022-07-21T05:09:19;19.63;;;17.80;;
63346;SDS011;49472;49.880;8.650;2022-07-21T05:11:45;18.90;;;17.45;;
63346;SDS011;49472;49.880;8.650;2022-07-21T05:14:11;18.17;;;16.48;;
63346;SDS011;49472;49.880;8.650;2022-07-21T05:16:39;19.23;;;17.65;;
63346;SDS011;49472;49.880;8.650;2022-07-21T05:19:04;17.40;;;16.00;;
63346;SDS011;49472;49.880;8.650;2022-07-21T05:21:30;19.33;;;17.57;;
63346;SDS011;49472;49.880;8.650;2022-07-21T05:23:55;19.70;;;17.90;;
63346;SDS011;49472;49.880;8.650;2022-07-21T05:26:21;17.63;;;16.33;;
63346;SDS011;49472;49.880;8.650;2022-07-21T05:28:47;18.90;;;17.30;;
63346;SDS011;49472;49.880;8.650;2022-07-21T05:31:12;18.75;;;17.35;;
63346;SDS011;49472;49.880;8.650;2022-07-21T05:33:38;19.30;;;17.65;;
63346;SDS011;49472;49.880;8.650;2022-07-21T05:36:03;19.10;;;17.55;;
63346;SDS011;49472;49.880;8.650;2022-07-21T05:38:29;19.20;;;17.70;;
63346;SDS011;49472;49.880;8.650;2022-07-21T05:40:55;20.17;;;18.55;;
63346;SDS011;49472;49.880;8.650;2022-07-21T05:43:21;18.98;;;17.58;;
63346;SDS011;49472;49.880;8.650;2022-07-21T05:45:46;18.80;;;17.38;;
63346;SDS011;49472;49.880;8.650;2022-07-21T05:48:11;20.52;;;18.27;;
63346;SDS011;49472;49.880;8.650;2022-07-21T05:50:37;18.95;;;17.45;;
63346;SDS011;49472;49.880;8.650;2022-07-21T05:53:02;20.38;;;18.77;;
63346;SDS011;49472;49.880;8.650;2022-07-21T05:55:29;19.90;;;18.30;;
63346;SDS011;49472;49.880;8.650;2022-07-21T05:57:54;19.90;;;18.33;;
63346;SDS011;49472;49.880;8.650;2022-07-21T06:00:20;20.63;;;19.02;;
63346;SDS011;49472;49.880;8.650;2022-07-21T06:02:45;19.25;;;17.75;;
63346;SDS011;49472;49.880;8.650;2022-07-21T06:05:11;20.23;;;18.17;;
63346;SDS011;49472;49.880;8.650;2022-07-21T06:07:37;20.25;;;18.65;;
63346;SDS011;49472;49.880;8.650;2022-07-21T06:10:04;19.92;;;17.90;;
63346;SDS011;49472;49.880;8.650;2022-07-21T06:12:30;21.63;;;18.92;;
63346;SDS011;49472;49.880;8.650;2022-07-21T06:14:55;20.50;;;18.73;;
63346;SDS011;49472;49.880;8.650;2022-07-21T06:17:21;21.65;;;19.75;;
63346;SDS011;49472;49.880;8.650;2022-07-21T06:19:47;20.17;;;18.52;;
63346;SDS011;49472;49.880;8.650;2022-07-21T06:22:12;22.98;;;19.08;;
63346;SDS011;49472;49.880;8.650;2022-07-21T06:24:38;20.67;;;19.08;;
63346;SDS011;49472;49.880;8.650;2022-07-21T06:27:03;21.20;;;19.27;;
63346;SDS011;49472;49.880;8.650;2022-07-21T06:29:29;21.95;;;17.92;;
63346;SDS011;49472;49.880;8.650;2022-07-21T06:31:55;22.15;;;20.05;;
63346;SDS011;49472;49.880;8.650;2022-07-21T06:34:20;21.35;;;19.05;;
63346;SDS011;49472;49.880;8.650;2022-07-21T06:36:45;26.35;;;19.33;;
63346;SDS011;49472;49.880;8.650;2022-07-21T06:39:11;22.25;;;20.15;;
63346;SDS011;49472;49.880;8.650;2022-07-21T06:41:39;20.45;;;18.75;;
63346;SDS011;49472;49.880;8.650;2022-07-21T06:44:05;29.80;;;19.70;;
63346;SDS011;49472;49.880;8.650;2022-07-21T06:46:31;21.88;;;19.75;;
63346;SDS011;49472;49.880;8.650;2022-07-21T06:49:01;21.20;;;19.08;;
63346;SDS011;49472;49.880;8.650;2022-07-21T06:51:27;20.70;;;18.75;;
63346;SDS011;49472;49.880;8.650;2022-07-21T06:53:53;20.48;;;18.42;;
63346;SDS011;49472;49.880;8.650;2022-07-21T06:56:18;19.65;;;18.08;;
63346;SDS011;49472;49.880;8.650;2022-07-21T06:58:44;19.23;;;17.33;;
63346;SDS011;49472;49.880;8.650;2022-07-21T07:01:10;19.23;;;17.73;;
63346;SDS011;49472;49.880;8.650;2022-07-21T07:03:36;18.75;;;17.15;;
63346;SDS011;49472;49.880;8.650;2022-07-21T07:06:02;19.33;;;17.33;;
63346;SDS011;49472;49.880;8.650;2022-07-21T07:08:28;19.70;;;17.85;;
63346;SDS011;49472;49.880;8.650;2022-07-21T07:10:54;20.55;;;18.67;;
63346;SDS011;49472;49.880;8.650;2022-07-21T07:13:20;19.63;;;17.98;;
63346;SDS011;49472;49.880;8.650;2022-07-21T07:15:45;19.85;;;18.10;;
63346;SDS011;49472;49.880;8.650;2022-07-21T07:18:11;20.25;;;18.38;;
63346;SDS011;49472;49.880;8.650;2022-07-21T07:20:36;21.05;;;19.13;;
63346;SDS011;49472;49.880;8.650;2022-07-21T07:23:02;20.40;;;18.80;;
63346;SDS011;49472;49.880;8.650;2022-07-21T07:25:28;22.67;;;18.85;;
63346;SDS011;49472;49.880;8.650;2022-07-21T07:27:53;21.05;;;19.17;;
63346;SDS011;49472;49.880;8.650;2022-07-21T07:30:21;21.50;;;19.67;;
63346;SDS011;49472;49.880;8.650;2022-07-21T07:32:46;22.73;;;20.55;;
63346;SDS011;49472;49.880;8.650;2022-07-21T07:35:14;20.17;;;18.58;;
63346;SDS011;49472;49.880;8.650;2022-07-21T07:37:41;22.55;;;20.60;;
63346;SDS011;49472;49.880;8.650;2022-07-21T07:40:13;21.73;;;19.73;;
63346;SDS011;49472;49.880;8.650;2022-07-21T07:42:40;20.98;;;19.38;;
63346;SDS011;49472;49.880;8.650;2022-07-21T07:45:07;21.42;;;19.58;;
63346;SDS011;49472;49.880;8.650;2022-07-21T07:47:33;22.55;;;20.15;;
63346;SDS011;49472;49.880;8.650;2022-07-21T07:49:58;21.88;;;19.88;;
63346;SDS011;49472;49.880;8.650;2022-07-21T07:52:24;22.38;;;20.58;;
63346;SDS011;49472;49.880;8.650;2022-07-21T07:54:50;22.55;;;19.65;;
63346;SDS011;49472;49.880;8.650;2022-07-21T07:57:16;21.38;;;19.58;;
63346;SDS011;49472;49.880;8.650;2022-07-21T07:59:41;20.83;;;19.13;;
63346;SDS011;49472;49.880;8.650;2022-07-21T08:02:07;21.05;;;19.25;;
63346;SDS011;49472;49.880;8.650;2022-07-21T08:04:32;22.55;;;20.25;;
63346;SDS011;49472;49.880;8.650;2022-07-21T08:06:58;20.05;;;18.63;;
63346;SDS011;49472;49.880;8.650;2022-07-21T08:09:23;21.67;;;19.98;;
63346;SDS011;49472;49.880;8.650;2022-07-21T08:11:48;22.92;;;21.02;;
63346;SDS011;49472;49.880;8.650;2022-07-21T08:14:16;22.25;;;20.55;;
63346;SDS011;49472;49.880;8.650;2022-07-21T08:16:41;22.75;;;20.65;;
63346;SDS011;49472;49.880;8.650;2022-07-21T08:19:07;22.60;;;20.58;;
63346;SDS011;49472;49.880;8.650;2022-07-21T08:21:33;21.63;;;20.00;;
63346;SDS011;49472;49.880;8.650;2022-07-21T08:23:59;22.42;;;20.63;;
63346;SDS011;49472;49.880;8.650;2022-07-21T08:26:26;24.25;;;21.67;;
63346;SDS011;49472;49.880;8.650;2022-07-21T08:28:52;23.25;;;21.30;;
63346;SDS011;49472;49.880;8.650;2022-07-21T08:31:18;22.08;;;20.10;;
63346;SDS011;49472;49.880;8.650;2022-07-21T08:33:44;23.08;;;20.98;;
63346;SDS011;49472;49.880;8.650;2022-07-21T08:36:09;24.83;;;22.50;;
63346;SDS011;49472;49.880;8.650;2022-07-21T08:38:35;23.45;;;21.45;;
63346;SDS011;49472;49.880;8.650;2022-07-21T08:41:00;23.58;;;21.27;;
63346;SDS011;49472;49.880;8.650;2022-07-21T08:43:26;22.60;;;20.45;;
63346;SDS011;49472;49.880;8.650;2022-07-21T08:45:52;23.25;;;21.25;;
63346;SDS011;49472;49.880;8.650;2022-07-21T08:48:21;21.80;;;19.52;;
63346;SDS011;49472;49.880;8.650;2022-07-21T08:50:49;23.00;;;21.00;;
63346;SDS011;49472;49.880;8.650;2022-07-21T08:53:15;23.58;;;20.17;;
63346;SDS011;49472;49.880;8.650;2022-07-21T08:55:40;21.98;;;19.95;;
63346;SDS011;49472;49.880;8.650;2022-07-21T08:58:07;21.65;;;19.40;;
63346;SDS011;49472;49.880;8.650;2022-07-21T09:00:34;21.67;;;19.48;;
63346;SDS011;49472;49.880;8.650;2022-07-21T09:03:10;20.27;;;18.52;;
63346;SDS011;49472;49.880;8.650;2022-07-21T09:05:36;21.60;;;19.60;;
63346;SDS011;49472;49.880;8.650;2022-07-21T09:08:02;21.52;;;19.67;;
63346;SDS011;49472;49.880;8.650;2022-07-21T09:10:28;20.40;;;18.50;;
63346;SDS011;49472;49.880;8.650;2022-07-21T09:12:56;19.63;;;18.10;;
63346;SDS011;49472;49.880;8.650;2022-07-21T09:15:24;18.27;;;16.88;;
63346;SDS011;49472;49.880;8.650;2022-07-21T09:18:07;18.83;;;17.13;;
63346;SDS011;49472;49.880;8.650;2022-07-21T09:20:35;18.13;;;16.60;;
63346;SDS011;49472;49.880;8.650;2022-07-21T09:23:02;18.52;;;16.92;;
63346;SDS011;49472;49.880;8.650;2022-07-21T09:25:33;18.85;;;17.33;;
63346;SDS011;49472;49.880;8.650;2022-07-21T09:28:10;17.88;;;16.40;;
63346;SDS011;49472;49.880;8.650;2022-07-21T09:33:20;16.02;;;14.82;;
63346;SDS011;49472;49.880;8.650;2022-07-21T09:35:54;16.52;;;15.32;;
63346;SDS011;49472;49.880;8.650;2022-07-21T09:38:41;17.27;;;15.63;;
63346;SDS011;49472;49.880;8.650;2022-07-21T09:41:15;17.15;;;16.00;;
63346;SDS011;49472;49.880;8.650;2022-07-21T09:43:49;16.95;;;15.55;;
63346;SDS011;49472;49.880;8.650;2022-07-21T09:46:27;18.75;;;17.08;;
63346;SDS011;49472;49.880;8.650;2022-07-21T09:48:55;18.45;;;17.08;;
63346;SDS011;49472;49.880;8.650;2022-07-21T09:54:15;23.83;;;18.25;;
63346;SDS011;49472;49.880;8.650;2022-07-21T09:56:41;21.13;;;19.35;;
63346;SDS011;49472;49.880;8.650;2022-07-21T09:59:09;20.45;;;18.13;;
63346;SDS011;49472;49.880;8.650;2022-07-21T10:01:36;19.05;;;17.48;;
63346;SDS011;49472;49.880;8.650;2022-07-21T10:04:03;19.15;;;17.73;;
63346;SDS011;49472;49.880;8.650;2022-07-21T10:06:37;19.83;;;18.25;;
63346;SDS011;49472;49.880;8.650;2022-07-21T10:09:05;19.90;;;17.95;;
63346;SDS011;49472;49.880;8.650;2022-07-21T10:11:32;21.58;;;19.58;;
63346;SDS011;49472;49.880;8.650;2022-07-21T10:13:58;19.05;;;17.63;;
63346;SDS011;49472;49.880;8.650;2022-07-21T10:16:24;18.60;;;17.30;;
63346;SDS011;49472;49.880;8.650;2022-07-21T10:24:17;19.33;;;17.60;;
63346;SDS011;49472;49.880;8.650;2022-07-21T10:32:28;18.15;;;16.63;;
63346;SDS011;49472;49.880;8.650;2022-07-21T10:37:51;17.90;;;16.27;;
63346;SDS011;49472;49.880;8.650;2022-07-21T10:42:46;20.42;;;18.25;;
63346;SDS011;49472;49.880;8.650;2022-07-21T10:45:37;18.63;;;17.23;;
63346;SDS011;49472;49.880;8.650;2022-07-21T10:48:05;17.95;;;16.60;;
63346;SDS011;49472;49.880;8.650;2022-07-21T10:50:39;17.98;;;16.60;;
63346;SDS011;49472;49.880;8.650;2022-07-21T10:55:54;17.90;;;16.00;;
63346;SDS011;49472;49.880;8.650;2022-07-21T11:00:59;19.02;;;17.05;;
63346;SDS011;49472;49.880;8.650;2022-07-21T11:03:35;18.20;;;17.00;;
63346;SDS011;49472;49.880;8.650;2022-07-21T11:08:35;17.65;;;16.42;;
63346;SDS011;49472;49.880;8.650;2022-07-21T11:11:10;17.83;;;16.63;;
63346;SDS011;49472;49.880;8.650;2022-07-21T11:16:47;17.67;;;16.38;;
63346;SDS011;49472;49.880;8.650;2022-07-21T11:22:18;16.92;;;15.70;;
63346;SDS011;49472;49.880;8.650;2022-07-21T11:24:50;15.68;;;14.57;;
63346;SDS011;49472;49.880;8.650;2022-07-21T11:27:16;15.70;;;14.70;;
63346;SDS011;49472;49.880;8.650;2022-07-21T11:29:44;16.30;;;15.20;;
63346;SDS011;49472;49.880;8.650;2022-07-21T11:32:11;16.17;;;15.02;;
63346;SDS011;49472;49.880;8.650;2022-07-21T11:34:41;15.70;;;14.23;;
63346;SDS011;49472;49.880;8.650;2022-07-21T11:37:11;15.20;;;14.20;;
63346;SDS011;49472;49.880;8.650;2022-07-21T11:39:37;15.77;;;14.43;;
63346;SDS011;49472;49.880;8.650;2022-07-21T11:42:04;15.60;;;14.18;;
63346;SDS011;49472;49.880;8.650;2022-07-21T11:44:31;15.38;;;14.38;;
63346;SDS011;49472;49.880;8.650;2022-07-21T11:46:59;16.25;;;14.55;;
63346;SDS011;49472;49.880;8.650;2022-07-21T11:49:25;15.02;;;14.13;;
63346;SDS011;49472;49.880;8.650;2022-07-21T11:51:53;14.90;;;13.85;;
63346;SDS011;49472;49.880;8.650;2022-07-21T11:54:30;14.75;;;13.85;;
63346;SDS011;49472;49.880;8.650;2022-07-21T11:56:57;15.90;;;14.82;;
63346;SDS011;49472;49.880;8.650;2022-07-21T11:59:24;15.00;;;14.15;;
63346;SDS011;49472;49.880;8.650;2022-07-21T12:09:56;16.15;;;14.88;;
63346;SDS011;49472;49.880;8.650;2022-07-21T12:12:34;15.70;;;14.23;;
63346;SDS011;49472;49.880;8.650;2022-07-21T12:15:20;15.23;;;14.23;;
63346;SDS011;49472;49.880;8.650;2022-07-21T12:17:52;15.40;;;14.07;;
63346;SDS011;49472;49.880;8.650;2022-07-21T12:20:24;15.07;;;14.02;;
63346;SDS011;49472;49.880;8.650;2022-07-21T12:25:51;16.52;;;15.30;;
63346;SDS011;49472;49.880;8.650;2022-07-21T12:28:17;16.20;;;15.00;;
63346;SDS011;49472;49.880;8.650;2022-07-21T12:30:43;17.58;;;16.27;;
63346;SDS011;49472;49.880;8.650;2022-07-21T12:33:18;15.02;;;13.75;;
63346;SDS011;49472;49.880;8.650;2022-07-21T12:38:37;16.65;;;15.38;;
63346;SDS011;49472;49.880;8.650;2022-07-21T12:41:12;17.25;;;15.55;;
63346;SDS011;49472;49.880;8.650;2022-07-21T12:43:38;15.98;;;14.88;;
63346;SDS011;49472;49.880;8.650;2022-07-21T12:46:14;16.95;;;15.43;;
63346;SDS011;49472;49.880;8.650;2022-07-21T12:48:43;16.27;;;14.95;;
63346;SDS011;49472;49.880;8.650;2022-07-21T12:51:20;16.02;;;14.60;;
63346;SDS011;49472;49.880;8.650;2022-07-21T12:53:51;16.67;;;15.48;;
63346;SDS011;49472;49.880;8.650;2022-07-21T12:56:20;17.55;;;16.25;;
63346;SDS011;49472;49.880;8.650;2022-07-21T12:58:47;17.65;;;15.98;;
63346;SDS011;49472;49.880;8.650;2022-07-21T13:01:14;16.30;;;15.10;;
63346;SDS011;49472;49.880;8.650;2022-07-21T13:03:40;16.83;;;15.63;;
63346;SDS011;49472;49.880;8.650;2022-07-21T13:06:06;17.67;;;16.38;;
63346;SDS011;49472;49.880;8.650;2022-07-21T13:08:33;17.42;;;16.08;;
63346;SDS011;49472;49.880;8.650;2022-07-21T13:10:59;17.63;;;16.15;;
63346;SDS011;49472;49.880;8.650;2022-07-21T13:13:25;16.35;;;15.05;;
63346;SDS011;49472;49.880;8.650;2022-07-21T13:15:51;17.77;;;16.52;;
63346;SDS011;49472;49.880;8.650;2022-07-21T13:18:17;17.23;;;16.10;;
63346;SDS011;49472;49.880;8.650;2022-07-21T13:20:43;17.33;;;16.02;;
63346;SDS011;49472;49.880;8.650;2022-07-21T13:23:08;18.15;;;16.67;;
63346;SDS011;49472;49.880;8.650;2022-07-21T13:25:34;18.27;;;16.40;;
63346;SDS011;49472;49.880;8.650;2022-07-21T13:28:00;18.10;;;16.65;;
63346;SDS011;49472;49.880;8.650;2022-07-21T13:30:26;18.30;;;17.05;;
63346;SDS011;49472;49.880;8.650;2022-07-21T13:32:52;17.95;;;16.55;;
63346;SDS011;49472;49.880;8.650;2022-07-21T13:35:17;17.20;;;15.90;;
63346;SDS011;49472;49.880;8.650;2022-07-21T13:37:42;18.02;;;16.52;;
63346;SDS011;49472;49.880;8.650;2022-07-21T13:40:08;17.80;;;16.50;;
63346;SDS011;49472;49.880;8.650;2022-07-21T13:42:34;17.85;;;16.38;;
63346;SDS011;49472;49.880;8.650;2022-07-21T13:44:59;20.00;;;18.00;;
63346;SDS011;49472;49.880;8.650;2022-07-21T13:47:24;19.25;;;17.67;;
63346;SDS011;49472;49.880;8.650;2022-07-21T13:49:50;18.35;;;16.95;;
63346;SDS011;49472;49.880;8.650;2022-07-21T13:52:16;17.88;;;16.58;;
63346;SDS011;49472;49.880;8.650;2022-07-21T13:54:41;18.42;;;16.73;;
63346;SDS011;49472;49.880;8.650;2022-07-21T13:57:06;18.00;;;16.70;;
63346;SDS011;49472;49.880;8.650;2022-07-21T13:59:32;17.73;;;16.33;;
63346;SDS011;49472;49.880;8.650;2022-07-21T14:01:57;19.60;;;17.92;;
63346;SDS011;49472;49.880;8.650;2022-07-21T14:04:23;18.65;;;17.13;;
63346;SDS011;49472;49.880;8.650;2022-07-21T14:06:48;18.33;;;16.42;;
63346;SDS011;49472;49.880;8.650;2022-07-21T14:09:14;18.35;;;16.70;;
63346;SDS011;49472;49.880;8.650;2022-07-21T14:11:41;16.95;;;15.75;;
63346;SDS011;49472;49.880;8.650;2022-07-21T14:14:06;18.55;;;16.95;;
63346;SDS011;49472;49.880;8.650;2022-07-21T14:16:31;17.83;;;16.50;;
63346;SDS011;49472;49.880;8.650;2022-07-21T14:18:57;16.45;;;15.45;;
63346;SDS011;49472;49.880;8.650;2022-07-21T14:21:23;17.35;;;16.02;;
63346;SDS011;49472;49.880;8.650;2022-07-21T14:23:48;17.50;;;16.20;;
63346;SDS011;49472;49.880;8.650;2022-07-21T14:26:34;19.05;;;17.45;;
63346;SDS011;49472;49.880;8.650;2022-07-21T14:28:59;21.05;;;18.00;;
63346;SDS011;49472;49.880;8.650;2022-07-21T14:31:24;19.98;;;18.48;;
63346;SDS011;49472;49.880;8.650;2022-07-21T14:33:50;18.60;;;17.10;;
63346;SDS011;49472;49.880;8.650;2022-07-21T14:36:15;18.30;;;16.80;;
63346;SDS011;49472;49.880;8.650;2022-07-21T14:38:40;17.40;;;16.10;;
63346;SDS011;49472;49.880;8.650;2022-07-21T14:41:06;19.10;;;17.38;;
63346;SDS011;49472;49.880;8.650;2022-07-21T14:43:31;17.48;;;15.82;;
63346;SDS011;49472;49.880;8.650;2022-07-21T14:45:56;15.68;;;14.65;;
63346;SDS011;49472;49.880;8.650;2022-07-21T14:48:22;19.58;;;15.07;;
63346;SDS011;49472;49.880;8.650;2022-07-21T14:50:47;15.80;;;14.50;;
63346;SDS011;49472;49.880;8.650;2022-07-21T14:53:13;15.38;;;14.27;;
63346;SDS011;49472;49.880;8.650;2022-07-21T14:55:38;19.55;;;14.32;;
63346;SDS011;49472;49.880;8.650;2022-07-21T14:58:04;15.05;;;13.68;;
63346;SDS011;49472;49.880;8.650;2022-07-21T15:00:29;14.55;;;13.50;;
63346;SDS011;49472;49.880;8.650;2022-07-21T15:02:54;15.90;;;14.45;;
63346;SDS011;49472;49.880;8.650;2022-07-21T15:05:20;15.45;;;14.25;;
63346;SDS011;49472;49.880;8.650;2022-07-21T15:07:45;15.35;;;14.25;;
63346;SDS011;49472;49.880;8.650;2022-07-21T15:10:11;13.73;;;12.82;;
63346;SDS011;49472;49.880;8.650;2022-07-21T15:12:36;14.23;;;13.23;;